KBUF/BUF METAR and TAF weather

Enter ICAO airport designator
Station Type Date Time Source
KBUF METAR 2022/12/08 11:54 UTC NOAA

KBUF 081154Z 31005KT 10SM OVC049 05/02 A3032 RMK AO2 SLP274 70001 T00500022 10061 20050 53009


Station Type Date Time Source
KBUF Decoded METAR 2022/12/08 11:54 UTC NOAA

GREATER BUFFALO INTERNATIONAL AIRPORT , NY, United States (KBUF) 42-56N 078-44W 225M
Dec 08, 2022 - 06:54 AM EST / 2022.12.08 1154 UTC
Wind: from the NW (310 degrees) at 6 MPH (5 KT):0
Visibility: 10 mile(s):0
Sky conditions: overcast
Temperature: 41.0 F (5.0 C)
Dew Point: 36.0 F (2.2 C)
Relative Humidity: 82%
Pressure (altimeter): 30.32 in. Hg (1026 hPa)
Pressure tendency: 0.03 inches (0.9 hPa) higher than three hours ago
ob: KBUF 081154Z 31005KT 10SM OVC049 05/02 A3032 RMK AO2 SLP274 70001 T00500022 10061 20050 53009
cycle: 12

Station Type Date Time Source
KBUF TAF 2022/12/08 12:24 UTC NOAA

TAF KBUF 081121Z 0812/0912 31004KT P6SM OVC045
FM081300 32004KT P6SM OVC030
FM082300 01004KT P6SM BKN035
FM090300 03004KT P6SM BKN030
FM091100 06006KT P6SM BKN025

Example: see airport list